Terminal Aerodrome Forecast
Issued by NWS

Home | Current Version | Previous Version | Text Only | Print | Product List | Glossary Off
Versions: 1 2 3 4 5 6 7 8 9 10 11 12 13 14 15 16 17 18 19 20 21 22 23 24 25 26

646
FTUS43 KLOT 150703 AAA
TAFORD
TAF AMD
KORD 150703Z 1507/1612 22016G23KT P6SM SCT020 BKN060
      TEMPO 1507/1509 -RA
     FM151130 28020G31KT P6SM OVC015
     FM151700 31019G27KT P6SM BKN030
     FM152100 32014G22KT P6SM BKN040
     FM152300 32010KT P6SM BKN050
     FM160300 29005KT P6SM SCT250=

USA.gov is the U.S. government's official web portal to all federal, state and local government web resources and services.